createdAt,value
2023-05-02T00:01:52.223Z,99588.44
2023-05-02T00:04:24.878Z,99587.98
2023-05-02T00:06:57.419Z,99582.55
2023-05-02T00:09:30.366Z,99578.70
2023-05-02T00:12:02.702Z,99575.23
2023-05-02T00:14:34.762Z,99577.34
2023-05-02T00:17:06.960Z,99574.06
2023-05-02T00:19:42.349Z,99574.91
2023-05-02T00:22:14.415Z,99575.93
2023-05-02T00:24:46.515Z,99569.91
2023-05-02T00:27:19.381Z,99574.17
2023-05-02T00:29:52.481Z,99573.64
2023-05-02T00:32:24.619Z,99571.89
2023-05-02T00:34:56.726Z,99568.20
2023-05-02T00:37:30.519Z,99568.17
2023-05-02T00:40:02.999Z,99567.15
2023-05-02T00:42:37.346Z,99570.24
2023-05-02T00:45:10.918Z,99566.48
2023-05-02T00:47:43.211Z,99565.65
2023-05-02T00:50:15.571Z,99564.61
2023-05-02T00:52:48.413Z,99566.39
2023-05-02T00:55:20.816Z,99567.91
2023-05-02T00:57:52.914Z,99573.01
2023-05-02T01:00:28.416Z,99571.73
2023-05-02T01:03:07.984Z,99572.80
2023-05-02T01:05:51.181Z,99574.84
2023-05-02T01:08:35.950Z,99573.06
2023-05-02T01:11:16.180Z,99581.09
2023-05-02T01:13:49.740Z,99578.66
2023-05-02T01:16:25.203Z,99578.30
2023-05-02T01:19:00.823Z,99575.96
2023-05-02T01:21:34.137Z,99578.19
2023-05-02T01:24:13.635Z,99574.23
2023-05-02T01:26:53.105Z,99579.39
2023-05-02T01:29:26.499Z,99574.05
2023-05-02T01:32:01.249Z,99578.27
2023-05-02T01:34:37.426Z,99574.77
2023-05-02T01:37:12.318Z,99574.67
2023-05-02T01:39:45.876Z,99572.64
2023-05-02T01:42:21.645Z,99571.79
2023-05-02T01:44:56.463Z,99574.80
2023-05-02T01:47:31.723Z,99574.02
2023-05-02T01:50:05.144Z,99569.48
2023-05-02T01:52:38.569Z,99570.64
2023-05-02T01:55:15.298Z,99571.27
2023-05-02T01:57:50.473Z,99572.01
2023-05-02T02:00:24.578Z,99573.44
2023-05-02T02:02:58.870Z,99573.82
2023-05-02T02:05:32.591Z,99574.73
2023-05-02T02:08:05.035Z,99576.36
2023-05-02T02:10:42.171Z,99579.88
2023-05-02T02:13:21.141Z,99580.76
2023-05-02T02:15:55.577Z,99579.61
2023-05-02T02:18:30.698Z,99579.93
2023-05-02T02:21:03.944Z,99573.40
2023-05-02T02:23:38.063Z,99574.44
2023-05-02T02:26:11.763Z,99569.27
2023-05-02T02:28:44.091Z,99570.52
2023-05-02T02:31:16.277Z,99569.95
2023-05-02T02:33:48.424Z,99568.80
2023-05-02T02:36:26.990Z,99568.19
2023-05-02T02:39:09.559Z,99570.83
2023-05-02T02:41:46.050Z,99572.43
2023-05-02T02:44:29.660Z,99568.66
2023-05-02T02:47:12.803Z,99573.16
2023-05-02T02:49:52.780Z,99573.36
2023-05-02T02:52:29.792Z,99574.71
2023-05-02T02:55:10.632Z,99571.33
2023-05-02T02:57:52.840Z,99570.50
2023-05-02T03:00:26.141Z,99574.20
2023-05-02T03:02:58.752Z,99573.00
2023-05-02T03:05:34.301Z,99574.67
2023-05-02T03:08:06.767Z,99571.14
2023-05-02T03:10:38.917Z,99571.78
2023-05-02T03:13:11.366Z,99568.42
2023-05-02T03:16:19.696Z,99570.60
2023-05-02T03:18:51.972Z,99565.89
2023-05-02T03:21:24.020Z,99566.52
2023-05-02T03:23:57.630Z,99569.50
2023-05-02T03:26:31.158Z,99572.84
2023-05-02T03:29:03.517Z,99569.88
2023-05-02T03:31:38.365Z,99574.72
2023-05-02T03:34:11.202Z,99574.42
2023-05-02T03:36:43.508Z,99571.04
2023-05-02T03:39:16.376Z,99574.66
2023-05-02T03:41:49.127Z,99576.56
2023-05-02T03:44:22.532Z,99579.23
2023-05-02T03:46:54.790Z,99583.17
2023-05-02T03:49:27.124Z,99584.84
2023-05-02T03:51:59.444Z,99584.66
2023-05-02T03:54:34.985Z,99589.19
2023-05-02T03:57:08.211Z,99591.08
2023-05-02T03:59:43.206Z,99592.67
2023-05-02T04:02:18.654Z,99592.74
2023-05-02T04:04:53.539Z,99596.89
2023-05-02T04:07:28.722Z,99595.33
2023-05-02T04:10:15.718Z,99595.23
2023-05-02T04:12:51.267Z,99589.94
2023-05-02T04:15:24.213Z,99585.59
2023-05-02T04:18:00.862Z,99589.05
2023-05-02T04:20:34.385Z,99601.20
2023-05-02T04:23:06.602Z,99598.24
2023-05-02T04:25:39.090Z,99596.33
2023-05-02T04:28:11.465Z,99599.16
2023-05-02T04:30:43.749Z,99600.96
2023-05-02T04:33:17.134Z,99600.74
2023-05-02T04:35:49.321Z,99605.86
2023-05-02T04:38:22.974Z,99609.70
2023-05-02T04:40:56.040Z,99613.17
2023-05-02T04:43:35.304Z,99617.61
2023-05-02T04:46:08.470Z,99621.73
2023-05-02T04:48:43.435Z,99632.54
2023-05-02T04:51:17.099Z,99639.98
2023-05-02T04:53:52.174Z,99644.68
2023-05-02T04:56:24.932Z,99644.61
2023-05-02T04:58:57.241Z,99648.14
2023-05-02T05:01:29.773Z,99647.77
2023-05-02T05:04:02.467Z,99652.36
2023-05-02T05:06:34.859Z,99654.28
2023-05-02T05:09:07.546Z,99649.22
2023-05-02T05:11:43.052Z,99654.67
2023-05-02T05:14:15.216Z,99655.23
2023-05-02T05:16:49.969Z,99658.51
2023-05-02T05:19:22.816Z,99665.90
2023-05-02T05:21:54.935Z,99670.70
2023-05-02T05:24:27.639Z,99673.04
2023-05-02T05:27:02.198Z,99675.73
2023-05-02T05:29:35.585Z,99674.95
2023-05-02T05:32:08.479Z,99677.97
2023-05-02T05:34:41.005Z,99673.58
2023-05-02T05:37:13.155Z,99672.33
2023-05-02T05:39:46.166Z,99668.27
2023-05-02T05:42:18.304Z,99669.39
2023-05-02T05:44:53.236Z,99668.91
2023-05-02T05:47:25.387Z,99673.30
2023-05-02T05:49:58.659Z,99681.48
2023-05-02T05:52:34.515Z,99693.30
2023-05-02T05:55:09.060Z,99697.49
2023-05-02T05:57:41.422Z,99694.60
2023-05-02T06:00:17.024Z,99698.95
2023-05-02T06:02:50.176Z,99703.65
2023-05-02T06:05:30.749Z,99697.57
2023-05-02T06:08:02.942Z,99698.44
2023-05-02T06:10:35.349Z,99704.50
2023-05-02T06:13:07.745Z,99707.79
2023-05-02T06:15:42.936Z,99710.20
2023-05-02T06:18:15.409Z,99708.63
2023-05-02T06:20:48.365Z,99710.00
2023-05-02T06:23:20.606Z,99711.05
2023-05-02T06:25:52.619Z,99715.02
2023-05-02T06:28:25.119Z,99715.34
2023-05-02T06:31:03.234Z,99717.59
2023-05-02T06:33:35.890Z,99714.80
2023-05-02T06:36:08.685Z,99720.83
2023-05-02T06:38:40.883Z,99722.51
2023-05-02T06:41:18.395Z,99723.63
2023-05-02T06:43:51.228Z,99726.85
2023-05-02T06:46:23.423Z,99729.90
2023-05-02T06:48:55.668Z,99732.96
2023-05-02T06:51:27.857Z,99732.77
2023-05-02T06:54:00.199Z,99738.11
2023-05-02T06:56:32.678Z,99737.56
2023-05-02T06:59:05.428Z,99741.46
2023-05-02T07:01:37.558Z,99743.82
2023-05-02T07:04:09.856Z,99748.77
2023-05-02T07:06:43.288Z,99750.05
2023-05-02T07:09:15.414Z,99745.95
2023-05-02T07:11:47.717Z,99744.34
2023-05-02T07:14:19.814Z,99749.02
2023-05-02T07:16:51.916Z,99752.48
2023-05-02T07:19:23.905Z,99749.84
2023-05-02T07:21:55.926Z,99757.45
2023-05-02T07:24:28.156Z,99757.08
2023-05-02T07:27:00.317Z,99757.16
2023-05-02T07:29:32.277Z,99760.07
2023-05-02T07:32:05.060Z,99760.94
2023-05-02T07:34:37.184Z,99765.80
2023-05-02T07:37:09.248Z,99770.38
2023-05-02T07:39:41.385Z,99773.29
2023-05-02T07:42:13.699Z,99776.71
2023-05-02T07:44:45.908Z,99783.38
2023-05-02T07:47:18.087Z,99785.57
2023-05-02T07:49:54.245Z,99794.05
2023-05-02T07:52:27.615Z,99794.89
2023-05-02T07:54:59.777Z,99797.61
2023-05-02T07:57:32.236Z,99800.58
2023-05-02T08:00:08.022Z,99801.45
2023-05-02T08:02:46.405Z,99802.90
2023-05-02T08:05:20.636Z,99804.19
2023-05-02T08:07:52.739Z,99808.87
2023-05-02T08:10:25.803Z,99804.81
2023-05-02T08:12:58.340Z,99804.20
2023-05-02T08:15:30.916Z,99805.24
2023-05-02T08:18:03.106Z,99803.52
2023-05-02T08:20:35.560Z,99806.70
2023-05-02T08:23:07.872Z,99811.06
2023-05-02T08:25:40.095Z,99811.63
2023-05-02T08:28:12.469Z,99813.04
2023-05-02T08:30:45.755Z,99818.72
2023-05-02T08:33:18.855Z,99814.57
2023-05-02T08:35:51.947Z,99818.20
2023-05-02T08:38:25.125Z,99825.28
2023-05-02T08:40:58.027Z,99827.09
2023-05-02T08:43:34.327Z,99828.19
2023-05-02T08:46:10.570Z,99829.73
2023-05-02T08:48:49.585Z,99829.73
2023-05-02T08:51:25.695Z,99830.59
2023-05-02T08:54:00.940Z,99834.67
2023-05-02T08:56:37.548Z,99833.59
2023-05-02T08:59:12.267Z,99837.96
2023-05-02T09:01:52.546Z,99836.52
2023-05-02T09:04:26.153Z,99834.69
2023-05-02T09:06:59.088Z,99834.94
2023-05-02T09:09:39.646Z,99842.91
2023-05-02T09:12:16.443Z,99845.89
2023-05-02T09:15:11.243Z,99844.66
2023-05-02T09:17:46.487Z,99849.05
2023-05-02T09:20:20.082Z,99854.09
2023-05-02T09:22:55.493Z,99859.29
2023-05-02T09:25:40.227Z,99858.80
2023-05-02T09:28:13.066Z,99857.27
2023-05-02T09:30:49.903Z,99859.36
2023-05-02T09:33:29.943Z,99864.08
2023-05-02T09:36:02.820Z,99867.04
2023-05-02T09:38:36.177Z,99872.00
2023-05-02T09:41:09.160Z,99874.81
2023-05-02T09:43:43.565Z,99880.33
2023-05-02T09:46:16.537Z,99881.60
2023-05-02T09:48:59.170Z,99877.33
2023-05-02T09:51:31.476Z,99878.91
2023-05-02T09:54:07.563Z,99882.73
2023-05-02T09:56:56.792Z,99883.48
2023-05-02T09:59:30.001Z,99883.20
2023-05-02T10:02:04.750Z,99884.44
2023-05-02T10:04:38.233Z,99884.38
2023-05-02T10:07:11.927Z,99877.54
2023-05-02T10:09:47.698Z,99885.40
2023-05-02T10:12:24.047Z,99890.96
2023-05-02T10:15:02.447Z,99892.67
2023-05-02T10:17:42.688Z,99890.98
2023-05-02T10:20:24.103Z,99890.67
2023-05-02T10:22:57.961Z,99897.73
2023-05-02T10:25:31.606Z,99895.38
2023-05-02T10:28:04.898Z,99900.80
2023-05-02T10:30:39.418Z,99901.54
2023-05-02T10:33:19.186Z,99903.94
2023-05-02T10:35:54.880Z,99906.70
2023-05-02T10:38:28.567Z,99903.80
2023-05-02T10:41:08.263Z,99909.12
2023-05-02T10:43:43.259Z,99910.80
2023-05-02T10:46:36.233Z,99912.52
2023-05-02T10:49:10.117Z,99914.02
2023-05-02T10:51:44.857Z,99921.57
2023-05-02T10:54:25.487Z,99929.48
2023-05-02T10:57:11.279Z,99929.84
2023-05-02T10:59:46.730Z,99931.66
2023-05-02T11:02:51.813Z,99931.27
2023-05-02T11:05:26.616Z,99929.84
2023-05-02T11:08:29.247Z,99927.98
2023-05-02T11:11:41.657Z,99933.77
2023-05-02T11:14:48.626Z,99934.20
2023-05-02T11:17:21.953Z,99943.27
2023-05-02T11:20:28.062Z,99943.66
2023-05-02T11:23:27.208Z,99946.79
2023-05-02T11:26:03.486Z,99949.01
2023-05-02T11:28:48.964Z,99951.05
2023-05-02T11:32:05.180Z,99956.60
2023-05-02T11:34:56.115Z,99957.30
2023-05-02T11:37:28.810Z,99955.92
2023-05-02T11:40:16.473Z,99962.59
2023-05-02T11:42:48.999Z,99958.05
2023-05-02T11:45:22.605Z,99959.27
2023-05-02T11:47:55.397Z,99963.04
2023-05-02T11:50:30.588Z,99966.61
2023-05-02T11:53:03.476Z,99968.98
2023-05-02T11:55:38.226Z,99971.58
2023-05-02T11:58:16.465Z,99972.98
2023-05-02T12:00:49.935Z,99975.74
2023-05-02T12:03:32.089Z,99979.81
2023-05-02T12:06:15.391Z,99981.59
2023-05-02T12:08:49.437Z,99983.20
2023-05-02T12:11:22.466Z,99985.04
2023-05-02T12:13:56.167Z,99988.05
2023-05-02T12:16:28.892Z,99990.95
2023-05-02T12:19:02.027Z,99988.72
2023-05-02T12:21:35.001Z,99992.61
2023-05-02T12:24:08.015Z,99998.17
2023-05-02T12:26:40.661Z,99996.86
2023-05-02T12:29:13.513Z,99995.90
2023-05-02T12:31:55.230Z,99997.71
2023-05-02T12:34:36.812Z,99992.36
2023-05-02T12:37:11.935Z,99995.55
2023-05-02T12:39:45.716Z,99993.92
2023-05-02T12:42:19.805Z,99992.86
2023-05-02T12:44:53.777Z,99998.64
2023-05-02T12:47:28.944Z,99995.37
2023-05-02T12:50:03.190Z,99997.73
2023-05-02T12:52:49.967Z,99998.21
2023-05-02T12:55:24.826Z,99998.19
2023-05-02T12:58:05.295Z,100002.05
2023-05-02T13:00:40.604Z,99996.04
2023-05-02T13:03:13.368Z,100001.23
2023-05-02T13:05:46.271Z,99999.98
2023-05-02T13:08:18.777Z,100002.50
2023-05-02T13:10:51.658Z,100004.98
2023-05-02T13:13:24.218Z,100006.77
2023-05-02T13:15:57.622Z,100008.23
2023-05-02T13:18:30.265Z,100007.24
2023-05-02T13:21:03.088Z,100011.63
2023-05-02T13:23:36.367Z,100013.94
2023-05-02T13:26:09.532Z,100019.23
2023-05-02T13:28:42.284Z,100024.69
2023-05-02T13:31:14.741Z,100029.10
2023-05-02T13:33:47.432Z,100037.34
2023-05-02T13:36:19.744Z,100037.39
2023-05-02T13:38:52.185Z,100030.63
2023-05-02T13:41:25.291Z,100032.20
2023-05-02T13:43:58.617Z,100031.70
2023-05-02T13:46:36.772Z,100029.45
2023-05-02T13:49:09.693Z,100035.54
2023-05-02T13:51:42.333Z,100035.73
2023-05-02T13:54:15.951Z,100037.11
2023-05-02T13:56:48.540Z,100034.31
2023-05-02T13:59:20.910Z,100028.41
2023-05-02T14:01:53.843Z,100033.28
2023-05-02T14:04:26.553Z,100031.02
2023-05-02T14:06:59.043Z,100030.84
2023-05-02T14:09:31.482Z,100031.35
2023-05-02T14:12:03.900Z,100033.77
2023-05-02T14:14:38.242Z,100036.73
2023-05-02T14:17:10.665Z,100040.88
2023-05-02T14:19:43.327Z,100040.69
2023-05-02T14:22:16.309Z,100041.05
2023-05-02T14:24:48.734Z,100041.73
2023-05-02T14:27:21.163Z,100042.63
2023-05-02T14:29:53.525Z,100039.33
2023-05-02T14:32:26.387Z,100042.63
2023-05-02T14:35:01.767Z,100045.58
2023-05-02T14:37:34.080Z,100048.35
2023-05-02T14:40:07.771Z,100053.58
2023-05-02T14:42:40.637Z,100054.29
2023-05-02T14:45:13.827Z,100050.97
2023-05-02T14:47:46.547Z,100050.80
2023-05-02T14:50:19.361Z,100050.80
2023-05-02T14:52:51.786Z,100046.98
2023-05-02T14:55:25.110Z,100047.48
2023-05-02T14:57:58.637Z,100054.44
2023-05-02T15:00:31.557Z,100053.92
2023-05-02T15:03:07.655Z,100059.16
2023-05-02T15:05:42.018Z,100058.97
2023-05-02T15:08:14.627Z,100066.10
2023-05-02T15:10:47.662Z,100065.05
2023-05-02T15:13:20.166Z,100074.42
2023-05-02T15:15:54.046Z,100082.25
2023-05-02T15:18:28.273Z,100082.95
2023-05-02T15:21:01.578Z,100082.78
2023-05-02T15:23:34.711Z,100088.01
2023-05-02T15:26:07.060Z,100085.05
2023-05-02T15:28:39.687Z,100085.58
2023-05-02T15:31:12.236Z,100087.85
2023-05-02T15:33:44.827Z,100087.66
2023-05-02T15:36:19.035Z,100092.02
2023-05-02T15:38:51.393Z,100096.36
2023-05-02T15:41:27.049Z,100099.48
2023-05-02T15:43:59.969Z,100102.63
2023-05-02T15:46:32.717Z,100104.02
2023-05-02T15:49:05.179Z,100107.32
2023-05-02T15:51:37.501Z,100110.97
2023-05-02T15:54:10.496Z,100111.66
2023-05-02T15:56:43.886Z,100114.27
2023-05-02T15:59:16.541Z,100114.42
2023-05-02T16:01:48.953Z,100119.80
2023-05-02T16:04:21.568Z,100114.58
2023-05-02T16:06:54.503Z,100118.73
2023-05-02T16:09:27.117Z,100119.24
2023-05-02T16:11:59.535Z,100116.97
2023-05-02T16:14:31.761Z,100112.80
2023-05-02T16:17:04.326Z,100112.61
2023-05-02T16:19:37.641Z,100110.34
2023-05-02T16:22:10.442Z,100112.71
2023-05-02T16:24:43.167Z,100117.02
2023-05-02T16:27:15.788Z,100117.00
2023-05-02T16:29:52.234Z,100115.23
2023-05-02T16:32:25.040Z,100118.83
2023-05-02T16:34:57.870Z,100117.23
2023-05-02T16:37:30.481Z,100121.38
2023-05-02T16:40:06.030Z,100120.98
2023-05-02T16:42:40.001Z,100119.41
2023-05-02T16:45:13.083Z,100119.58
2023-05-02T16:47:46.748Z,100117.84
2023-05-02T16:50:19.312Z,100120.95
2023-05-02T16:52:52.433Z,100121.13
2023-05-02T16:55:25.207Z,100119.93
2023-05-02T16:57:57.696Z,100122.35
2023-05-02T17:00:30.083Z,100125.42
2023-05-02T17:03:05.053Z,100126.64
2023-05-02T17:05:38.590Z,100124.03
2023-05-02T17:08:11.110Z,100121.48
2023-05-02T17:10:43.645Z,100119.59
2023-05-02T17:13:16.746Z,100123.09
2023-05-02T17:15:49.122Z,100126.90
2023-05-02T17:18:22.001Z,100126.19
2023-05-02T17:20:57.266Z,100122.53
2023-05-02T17:23:31.654Z,100121.27
2023-05-02T17:26:05.721Z,100125.56
2023-05-02T17:28:39.758Z,100130.91
2023-05-02T17:31:13.315Z,100131.55
2023-05-02T17:33:46.285Z,100132.39
2023-05-02T17:36:20.651Z,100132.19
2023-05-02T17:38:54.094Z,100137.73
2023-05-02T17:41:26.880Z,100145.52
2023-05-02T17:43:59.448Z,100148.94
2023-05-02T17:46:32.777Z,100151.96
2023-05-02T17:49:05.512Z,100158.50
2023-05-02T17:51:38.143Z,100166.06
2023-05-02T17:54:11.414Z,100170.16
2023-05-02T17:56:44.701Z,100172.59
2023-05-02T17:59:20.829Z,100176.91
2023-05-02T18:01:55.851Z,100179.64
2023-05-02T18:04:30.518Z,100187.57
2023-05-02T18:07:05.689Z,100191.31
2023-05-02T18:09:38.957Z,100195.23
2023-05-02T18:12:11.771Z,100191.38
2023-05-02T18:14:46.520Z,100196.34
2023-05-02T18:17:21.430Z,100197.38
2023-05-02T18:19:54.141Z,100194.27
2023-05-02T18:22:28.242Z,100202.04
2023-05-02T18:25:01.683Z,100207.07
2023-05-02T18:27:35.843Z,100206.04
2023-05-02T18:30:11.262Z,100204.68
2023-05-02T18:32:43.978Z,100214.23
2023-05-02T18:35:17.495Z,100217.80
2023-05-02T18:37:50.228Z,100219.38
2023-05-02T18:40:25.467Z,100214.69
2023-05-02T18:43:00.902Z,100217.64
2023-05-02T18:45:33.602Z,100227.50
2023-05-02T18:48:07.983Z,100229.46
2023-05-02T18:50:41.815Z,100239.61
2023-05-02T18:53:17.684Z,100241.60
2023-05-02T18:55:54.139Z,100244.13
2023-05-02T18:58:28.952Z,100245.76
2023-05-02T19:01:02.669Z,100245.64
2023-05-02T19:03:37.125Z,100247.55
2023-05-02T19:06:17.734Z,100250.16
2023-05-02T19:08:51.572Z,100250.92
2023-05-02T19:11:26.407Z,100255.37
2023-05-02T19:14:05.979Z,100258.52
2023-05-02T19:16:40.575Z,100260.71
2023-05-02T19:19:15.938Z,100262.15
2023-05-02T19:21:51.156Z,100263.00
2023-05-02T19:24:33.873Z,100268.23
2023-05-02T19:27:11.805Z,100266.58
2023-05-02T19:29:43.747Z,100271.30
2023-05-02T19:32:21.772Z,100274.14
2023-05-02T19:34:57.272Z,100277.35
2023-05-02T19:37:46.054Z,100280.80
2023-05-02T19:40:30.706Z,100283.45
2023-05-02T19:43:06.442Z,100285.13
2023-05-02T19:45:43.863Z,100286.60
2023-05-02T19:48:17.514Z,100291.91
2023-05-02T19:50:51.261Z,100296.44
2023-05-02T19:53:24.131Z,100291.15
2023-05-02T19:55:58.264Z,100294.48
2023-05-02T19:58:38.318Z,100294.52
2023-05-02T20:01:18.176Z,100301.30
2023-05-02T20:03:52.362Z,100300.58
2023-05-02T20:06:28.566Z,100304.50
2023-05-02T20:09:03.998Z,100305.59
2023-05-02T20:11:41.693Z,100304.77
2023-05-02T20:14:15.981Z,100305.55
2023-05-02T20:16:48.857Z,100306.08
2023-05-02T20:19:24.394Z,100305.02
2023-05-02T20:21:58.653Z,100308.55
2023-05-02T20:24:31.123Z,100307.08
2023-05-02T20:27:04.250Z,100309.66
2023-05-02T20:29:36.951Z,100312.73
2023-05-02T20:32:09.970Z,100313.94
2023-05-02T20:34:42.683Z,100310.41
2023-05-02T20:37:19.222Z,100311.04
2023-05-02T20:39:52.480Z,100315.79
2023-05-02T20:42:26.001Z,100316.13
2023-05-02T20:45:05.158Z,100324.59
2023-05-02T20:47:37.909Z,100325.58
2023-05-02T20:50:13.188Z,100327.93
2023-05-02T20:52:46.025Z,100330.73
2023-05-02T20:55:19.278Z,100333.69
2023-05-02T20:57:53.664Z,100334.65
2023-05-02T21:00:27.791Z,100339.71
2023-05-02T21:03:00.363Z,100342.52
2023-05-02T21:05:33.268Z,100346.05
2023-05-02T21:08:05.859Z,100347.83
2023-05-02T21:10:38.375Z,100349.84
2023-05-02T21:13:10.833Z,100350.90
2023-05-02T21:15:43.838Z,100348.73
2023-05-02T21:18:16.795Z,100347.56
2023-05-02T21:20:52.249Z,100348.46
2023-05-02T21:23:24.840Z,100346.61
2023-05-02T21:25:57.509Z,100344.04
2023-05-02T21:28:29.971Z,100346.23
2023-05-02T21:31:04.052Z,100343.51
2023-05-02T21:33:36.564Z,100341.22
2023-05-02T21:36:09.652Z,100347.74
2023-05-02T21:38:41.932Z,100348.13
2023-05-02T21:41:14.443Z,100353.02
2023-05-02T21:43:46.778Z,100350.20
2023-05-02T21:46:18.960Z,100349.52
2023-05-02T21:48:51.220Z,100350.62
2023-05-02T21:51:23.301Z,100346.95
2023-05-02T21:53:56.766Z,100346.92
2023-05-02T21:56:28.917Z,100345.92
2023-05-02T21:59:01.000Z,100345.16
2023-05-02T22:01:33.150Z,100346.08
2023-05-02T22:04:05.318Z,100342.88
2023-05-02T22:06:37.495Z,100342.88
2023-05-02T22:09:10.462Z,100344.80
2023-05-02T22:11:42.708Z,100350.48
2023-05-02T22:14:14.939Z,100354.38
2023-05-02T22:16:47.546Z,100350.05
2023-05-02T22:19:19.886Z,100351.81
2023-05-02T22:21:52.200Z,100350.58
2023-05-02T22:24:24.566Z,100354.42
2023-05-02T22:26:56.903Z,100354.35
2023-05-02T22:29:29.097Z,100357.15
2023-05-02T22:32:01.393Z,100361.59
2023-05-02T22:34:33.604Z,100362.94
2023-05-02T22:37:05.775Z,100363.05
2023-05-02T22:39:37.899Z,100364.61
2023-05-02T22:42:09.919Z,100363.72
2023-05-02T22:44:52.928Z,100364.01
2023-05-02T22:47:26.977Z,100364.59
2023-05-02T22:49:59.744Z,100364.93
2023-05-02T22:52:38.065Z,100366.63
2023-05-02T22:55:11.952Z,100368.77
2023-05-02T22:57:44.219Z,100368.86
2023-05-02T23:00:17.100Z,100369.00
2023-05-02T23:02:49.309Z,100371.54
2023-05-02T23:05:21.836Z,100371.68
2023-05-02T23:07:54.172Z,100375.19
2023-05-02T23:10:26.298Z,100375.56
2023-05-02T23:12:58.370Z,100374.09
2023-05-02T23:15:30.432Z,100372.36
2023-05-02T23:18:02.693Z,100369.74
2023-05-02T23:20:35.760Z,100369.37
2023-05-02T23:23:07.882Z,100374.59
2023-05-02T23:25:40.045Z,100371.20
2023-05-02T23:28:12.277Z,100372.23
2023-05-02T23:30:44.367Z,100371.33
2023-05-02T23:33:17.339Z,100372.38
2023-05-02T23:35:49.590Z,100370.63
2023-05-02T23:38:21.765Z,100369.77
2023-05-02T23:40:54.628Z,100368.94
2023-05-02T23:43:27.366Z,100373.58
2023-05-02T23:45:59.395Z,100374.57
2023-05-02T23:48:31.497Z,100370.09
2023-05-02T23:51:03.644Z,100370.66
2023-05-02T23:53:35.713Z,100370.28
2023-05-02T23:56:08.747Z,100368.23
2023-05-02T23:58:40.858Z,100367.64
